Time;durP1;ratioP1;P1;durP2;ratioP2;P2;SDS_P1;SDS_P2;PMS_P1;PMS_P2;Temp;Humidity;BMP_temperature;BMP_pressure;BME280_temperature;BME280_humidity;BME280_pressure;Samples;Min_cycle;Max_cycle;Signal;HPM_P1;HPM_P2
2022/03/12 00:01:00;;;;;;;9.53;8.60;;;10.50;1.00;;;;;;2616346;54;20436;-82
2022/03/12 00:03:27;;;;;;;14.73;8.77;;;10.50;1.00;;;;;;2614345;47;20407;-81
2022/03/12 00:05:58;;;;;;;16.00;9.10;;;10.50;1.00;;;;;;2614851;51;20493;-80
2022/03/12 00:08:44;;;;;;;9.33;8.53;;;10.50;1.00;;;;;;2614844;47;20402;-80
2022/03/12 00:11:15;;;;;;;10.87;9.37;;;10.60;1.00;;;;;;2614700;54;20438;-79
2022/03/12 00:13:42;;;;;;;8.77;8.00;;;10.50;1.00;;;;;;2615804;46;20887;-79
2022/03/12 00:16:13;;;;;;;12.80;9.23;;;10.60;1.00;;;;;;2615026;54;21000;-78
2022/03/12 00:18:43;;;;;;;10.00;9.00;;;10.60;1.00;;;;;;2615769;54;20421;-80
2022/03/12 00:21:13;;;;;;;9.73;7.97;;;10.60;1.00;;;;;;2614766;54;20934;-80
2022/03/12 00:23:46;;;;;;;12.03;8.80;;;10.60;1.00;;;;;;2615208;54;20431;-80
2022/03/12 00:26:14;;;;;;;13.53;9.10;;;10.60;1.00;;;;;;2614718;47;20428;-80
2022/03/12 00:29:03;;;;;;;20.50;9.67;;;10.60;1.00;;;;;;2614617;54;20455;-80
2022/03/12 00:31:29;;;;;;;10.93;8.90;;;10.60;1.00;;;;;;2612961;51;20434;-80
2022/03/12 00:33:56;;;;;;;13.20;8.77;;;10.60;1.00;;;;;;2615362;54;20422;-79
2022/03/12 00:36:23;;;;;;;11.37;9.53;;;10.60;1.00;;;;;;2615468;54;20378;-79
2022/03/12 00:38:50;;;;;;;9.53;8.53;;;10.60;1.00;;;;;;2613712;47;20423;-79
2022/03/12 00:41:18;;;;;;;12.00;9.43;;;10.60;1.00;;;;;;2613616;39;20831;-79
2022/03/12 00:43:44;;;;;;;12.53;8.47;;;10.60;1.00;;;;;;2615691;47;20922;-79
2022/03/12 00:46:11;;;;;;;11.43;9.50;;;10.20;1.00;;;;;;2615931;54;20398;-80
2022/03/12 00:48:38;;;;;;;10.20;9.20;;;10.50;1.00;;;;;;2614056;47;21205;-79
2022/03/12 00:51:05;;;;;;;10.23;9.13;;;10.60;1.00;;;;;;2613758;54;20451;-79
2022/03/12 00:53:31;;;;;;;9.20;8.30;;;10.50;1.00;;;;;;2613421;54;20428;-80
2022/03/12 00:55:57;;;;;;;20.37;9.13;;;10.50;1.00;;;;;;2614185;47;20427;-79
2022/03/12 00:58:24;;;;;;;12.37;10.00;;;10.40;1.00;;;;;;2613543;54;20411;-80
2022/03/12 01:00:51;;;;;;;11.80;9.47;;;10.50;1.00;;;;;;2612803;54;20408;-79
2022/03/12 01:03:17;;;;;;;13.63;9.90;;;10.40;1.00;;;;;;2614206;54;20436;-79
2022/03/12 01:05:50;;;;;;;12.43;9.53;;;10.40;1.00;;;;;;2613830;39;21076;-79
2022/03/12 01:08:19;;;;;;;10.00;8.70;;;10.30;1.00;;;;;;2613852;54;20507;-79
2022/03/12 01:10:45;;;;;;;10.00;9.10;;;10.30;1.00;;;;;;2614907;54;20447;-79
2022/03/12 01:13:12;;;;;;;9.20;8.30;;;10.30;1.00;;;;;;2615675;39;20846;-80
2022/03/12 01:15:39;;;;;;;11.70;10.50;;;10.30;1.00;;;;;;2615708;54;20941;-80
2022/03/12 01:18:11;;;;;;;11.43;9.60;;;10.20;1.00;;;;;;2612681;54;20425;-79
2022/03/12 01:20:37;;;;;;;10.60;9.50;;;10.20;1.00;;;;;;2615596;47;20449;-80
2022/03/12 01:23:08;;;;;;;8.60;7.80;;;10.20;1.00;;;;;;2614980;54;20426;-79
2022/03/12 01:25:35;;;;;;;10.87;9.80;;;10.20;1.00;;;;;;2613208;47;20445;-80
2022/03/12 01:28:00;;;;;;;12.50;9.83;;;10.20;1.00;;;;;;2614305;47;20422;-80
2022/03/12 01:30:54;;;;;;;15.20;9.27;;;10.20;1.00;;;;;;2614266;54;21040;-79
2022/03/12 01:33:20;;;;;;;12.50;9.57;;;10.20;1.00;;;;;;2614381;47;20177;-81
2022/03/12 01:35:46;;;;;;;9.17;8.27;;;10.20;1.00;;;;;;2612255;54;20447;-79
2022/03/12 01:38:13;;;;;;;11.43;9.07;;;10.10;1.00;;;;;;2613240;54;21121;-80
2022/03/12 01:40:40;;;;;;;11.57;9.80;;;10.10;1.00;;;;;;2611833;47;21030;-80
2022/03/12 01:43:06;;;;;;;12.43;8.90;;;10.10;1.00;;;;;;2613919;54;20422;-78
2022/03/12 01:45:35;;;;;;;14.40;9.30;;;10.00;1.00;;;;;;2613287;47;20530;-79
2022/03/12 01:48:02;;;;;;;13.83;10.33;;;10.00;1.00;;;;;;2613983;47;20422;-78
2022/03/12 01:50:33;;;;;;;12.30;9.50;;;10.00;1.00;;;;;;2614420;47;20426;-80
2022/03/12 01:53:10;;;;;;;11.57;9.13;;;10.00;1.00;;;;;;2612653;54;20417;-79
2022/03/12 01:55:39;;;;;;;11.23;10.13;;;10.00;1.00;;;;;;2613494;39;20810;-79
2022/03/12 01:58:06;;;;;;;10.27;9.23;;;10.00;1.00;;;;;;2613604;54;20419;-79
2022/03/12 02:00:47;;;;;;;9.70;8.63;;;10.00;1.00;;;;;;2613621;54;20434;-79
2022/03/12 02:03:18;;;;;;;13.13;8.60;;;9.80;1.00;;;;;;2614086;54;20393;-79
2022/03/12 02:05:45;;;;;;;12.50;10.13;;;9.90;1.00;;;;;;2614065;54;20391;-78
2022/03/12 02:08:13;;;;;;;11.90;9.27;;;10.00;1.00;;;;;;2613764;54;20399;-78
2022/03/12 02:10:40;;;;;;;14.00;10.03;;;10.00;1.00;;;;;;2612439;47;20495;-79
2022/03/12 02:13:05;;;;;;;12.87;10.77;;;9.90;1.00;;;;;;2615398;54;20762;-80
2022/03/12 02:15:32;;;;;;;12.00;10.00;;;9.90;1.00;;;;;;2614970;51;20424;-79
2022/03/12 02:18:01;;;;;;;12.27;9.73;;;9.80;1.00;;;;;;2614591;54;20493;-79
2022/03/12 02:20:27;;;;;;;12.67;9.27;;;9.80;1.00;;;;;;2615746;54;20419;-81
2022/03/12 02:22:54;;;;;;;11.53;10.10;;;9.80;1.00;;;;;;2615493;47;20513;-80
2022/03/12 02:25:31;;;;;;;11.43;9.77;;;9.80;1.00;;;;;;2614676;39;21097;-80
2022/03/12 02:27:59;;;;;;;10.00;9.00;;;9.80;1.00;;;;;;2613317;47;20417;-79
2022/03/12 02:30:34;;;;;;;11.13;9.63;;;9.80;1.00;;;;;;2614292;47;20486;-79
2022/03/12 02:33:05;;;;;;;12.73;9.30;;;9.80;1.00;;;;;;2614768;47;20429;-78
2022/03/12 02:35:35;;;;;;;11.50;10.30;;;9.90;1.00;;;;;;2615512;47;20975;-81
2022/03/12 02:38:03;;;;;;;10.70;9.70;;;9.80;1.00;;;;;;2614914;54;20498;-79
2022/03/12 02:40:31;;;;;;;11.83;9.17;;;9.90;1.00;;;;;;2614883;54;20459;-78
2022/03/12 02:43:01;;;;;;;10.37;9.27;;;9.90;1.00;;;;;;2615948;54;20422;-81
2022/03/12 02:45:29;;;;;;;11.60;10.10;;;9.90;1.00;;;;;;2615266;54;20977;-79
2022/03/12 02:47:57;;;;;;;12.03;10.70;;;9.90;1.00;;;;;;2616415;39;20817;-79
2022/03/12 02:50:24;;;;;;;12.27;10.10;;;9.80;1.00;;;;;;2613592;54;20453;-80
2022/03/12 02:52:53;;;;;;;12.93;8.90;;;9.80;1.00;;;;;;2613450;47;20442;-79
2022/03/12 02:55:21;;;;;;;10.43;9.33;;;9.80;1.00;;;;;;2615348;54;20429;-79
2022/03/12 02:58:14;;;;;;;11.00;9.90;;;9.80;1.00;;;;;;2616429;54;20514;-79
2022/03/12 03:00:40;;;;;;;11.20;9.50;;;9.80;1.00;;;;;;2614446;54;20444;-79
2022/03/12 03:03:06;;;;;;;10.63;9.60;;;9.80;1.00;;;;;;2614585;54;20409;-79
2022/03/12 03:05:46;;;;;;;12.27;10.97;;;9.80;1.00;;;;;;2612322;54;20184;-79
2022/03/12 03:08:17;;;;;;;10.93;9.83;;;9.80;1.00;;;;;;2613857;54;20392;-79
2022/03/12 03:10:46;;;;;;;11.40;10.03;;;9.80;1.00;;;;;;2613944;47;20457;-79
2022/03/12 03:13:21;;;;;;;16.80;10.43;;;9.90;1.00;;;;;;2613869;54;20977;-79
2022/03/12 03:16:07;;;;;;;11.37;10.10;;;9.80;1.00;;;;;;2614981;54;20981;-79
2022/03/12 03:18:38;;;;;;;11.17;10.00;;;9.90;1.00;;;;;;2614520;47;20446;-80
2022/03/12 03:21:12;;;;;;;11.73;10.47;;;9.80;1.00;;;;;;2614933;54;20402;-79
2022/03/12 03:23:38;;;;;;;13.67;10.13;;;9.80;1.00;;;;;;2614059;39;20806;-79
2022/03/12 03:26:06;;;;;;;12.17;9.90;;;9.70;1.00;;;;;;2614442;47;21010;-81
2022/03/12 03:28:58;;;;;;;15.50;10.00;;;9.70;1.00;;;;;;2613237;47;21045;-80
2022/03/12 03:31:25;;;;;;;11.83;10.40;;;9.70;1.00;;;;;;2615249;46;20425;-79
2022/03/12 03:33:50;;;;;;;11.93;10.67;;;9.60;1.00;;;;;;2614416;47;20446;-79
2022/03/12 03:36:18;;;;;;;11.07;9.97;;;9.60;1.00;;;;;;2613739;50;20399;-79
2022/03/12 03:38:45;;;;;;;15.03;9.60;;;9.60;1.00;;;;;;2613950;47;20955;-78
2022/03/12 03:41:11;;;;;;;10.53;9.07;;;9.50;1.00;;;;;;2613342;47;20545;-80
2022/03/12 03:44:06;;;;;;;12.50;10.07;;;9.50;1.00;;;;;;2614555;54;20406;-79
2022/03/12 03:46:33;;;;;;;11.60;10.50;;;9.50;1.00;;;;;;2614169;47;20425;-80
2022/03/12 03:48:59;;;;;;;11.00;9.90;;;9.50;1.00;;;;;;2614185;47;20420;-79
2022/03/12 03:51:51;;;;;;;12.07;10.63;;;9.40;1.00;;;;;;2615042;54;20469;-78
2022/03/12 03:54:17;;;;;;;14.53;10.37;;;9.40;1.00;;;;;;2614240;54;20175;-78
2022/03/12 03:56:43;;;;;;;13.10;10.27;;;9.50;1.00;;;;;;2612720;54;20571;-78
2022/03/12 03:59:10;;;;;;;12.27;10.13;;;9.50;1.00;;;;;;2614036;54;20542;-79
2022/03/12 04:01:41;;;;;;;17.20;11.57;;;9.50;1.00;;;;;;2614424;54;20447;-79
2022/03/12 04:04:12;;;;;;;11.87;10.57;;;9.50;1.00;;;;;;2614409;54;20435;-79
2022/03/12 04:06:39;;;;;;;12.27;10.97;;;9.40;1.00;;;;;;2613646;54;20471;-80
2022/03/12 04:09:05;;;;;;;16.57;11.20;;;9.40;1.00;;;;;;2614290;54;20997;-79
2022/03/12 04:11:33;;;;;;;12.00;10.63;;;9.50;1.00;;;;;;2613345;47;20440;-79
2022/03/12 04:13:59;;;;;;;11.30;10.10;;;9.50;1.00;;;;;;2613305;47;20416;-78
2022/03/12 04:16:25;;;;;;;14.03;10.77;;;9.50;1.00;;;;;;2614493;54;20998;-79
2022/03/12 04:18:51;;;;;;;11.43;9.60;;;9.50;1.00;;;;;;2613714;54;20413;-80
2022/03/12 04:21:20;;;;;;;14.97;11.00;;;9.50;1.00;;;;;;2614113;39;20782;-79
2022/03/12 04:23:49;;;;;;;16.43;10.40;;;9.40;1.00;;;;;;2612992;54;20186;-79
2022/03/12 04:26:16;;;;;;;13.27;11.20;;;9.40;1.00;;;;;;2614202;51;20451;-79
2022/03/12 04:28:41;;;;;;;12.30;10.27;;;9.50;1.00;;;;;;2612939;54;20428;-79
2022/03/12 04:31:09;;;;;;;13.80;11.10;;;9.50;1.00;;;;;;2613068;54;20493;-79
2022/03/12 04:33:38;;;;;;;12.47;9.73;;;9.40;1.00;;;;;;2614262;54;20410;-79
2022/03/12 04:36:05;;;;;;;11.97;10.13;;;9.50;1.00;;;;;;2614827;39;20838;-79
2022/03/12 04:38:31;;;;;;;13.10;9.10;;;9.50;1.00;;;;;;2614718;51;20438;-79
2022/03/12 04:40:57;;;;;;;14.93;10.90;;;9.50;1.00;;;;;;2614045;39;21017;-79
2022/03/12 04:43:26;;;;;;;11.23;10.00;;;9.40;1.00;;;;;;2612704;54;20469;-79
2022/03/12 04:45:55;;;;;;;16.50;11.03;;;9.50;1.00;;;;;;2615441;54;20408;-80
2022/03/12 04:48:22;;;;;;;12.17;10.03;;;9.40;1.00;;;;;;2615986;47;20417;-81
2022/03/12 04:50:49;;;;;;;10.93;9.93;;;9.40;1.00;;;;;;2615168;54;20923;-78
2022/03/12 04:53:15;;;;;;;13.43;11.23;;;9.40;1.00;;;;;;2615879;47;20448;-79
2022/03/12 04:55:44;;;;;;;14.90;9.40;;;9.40;1.00;;;;;;2614442;54;20443;-80
2022/03/12 04:58:10;;;;;;;11.47;9.73;;;9.40;1.00;;;;;;2615312;46;20980;-80
2022/03/12 05:00:38;;;;;;;13.33;9.73;;;9.40;1.00;;;;;;2615597;54;20501;-79
2022/03/12 05:03:25;;;;;;;12.63;10.23;;;9.30;1.00;;;;;;2616687;39;20933;-79
2022/03/12 05:05:54;;;;;;;11.50;10.20;;;9.30;1.00;;;;;;2614211;54;20939;-79
2022/03/12 05:08:21;;;;;;;12.07;10.20;;;9.40;1.00;;;;;;2614451;54;20414;-81
2022/03/12 05:10:51;;;;;;;12.83;10.10;;;9.30;1.00;;;;;;2614907;54;20480;-80
2022/03/12 05:13:23;;;;;;;10.80;9.70;;;9.30;1.00;;;;;;2614936;54;20426;-79
2022/03/12 05:15:55;;;;;;;10.90;9.83;;;9.30;1.00;;;;;;2614681;54;20432;-78
2022/03/12 05:18:23;;;;;;;10.77;9.67;;;9.40;1.00;;;;;;2615202;54;20431;-81
2022/03/12 05:20:53;;;;;;;11.83;9.43;;;9.30;1.00;;;;;;2614883;54;20433;-79
2022/03/12 05:23:22;;;;;;;10.73;9.63;;;9.30;1.00;;;;;;2613927;47;20383;-80
2022/03/12 05:25:51;;;;;;;13.13;9.10;;;9.40;1.00;;;;;;2614669;47;21076;-79
2022/03/12 05:28:22;;;;;;;13.37;9.60;;;9.30;1.00;;;;;;2614939;47;21014;-79
2022/03/12 05:30:52;;;;;;;14.93;9.43;;;9.30;1.00;;;;;;2615769;39;20799;-79
2022/03/12 05:33:19;;;;;;;11.13;10.00;;;9.20;1.00;;;;;;2615789;54;21028;-79
2022/03/12 05:35:48;;;;;;;10.00;9.00;;;9.30;1.00;;;;;;2616355;39;20655;-79
2022/03/12 05:38:14;;;;;;;12.37;10.27;;;9.30;1.00;;;;;;2614095;54;21038;-79
2022/03/12 05:40:41;;;;;;;10.90;9.00;;;9.30;1.00;;;;;;2613734;54;20417;-79
2022/03/12 05:43:12;;;;;;;13.20;10.47;;;9.20;1.00;;;;;;2614905;46;20179;-80
2022/03/12 05:45:39;;;;;;;16.63;9.43;;;9.20;1.00;;;;;;2616326;54;20383;-79
2022/03/12 05:48:10;;;;;;;12.87;10.50;;;9.20;1.00;;;;;;2615709;54;20514;-79
2022/03/12 05:50:40;;;;;;;11.93;9.77;;;9.20;1.00;;;;;;2614465;54;20950;-80
2022/03/12 05:53:09;;;;;;;13.10;9.90;;;9.10;1.00;;;;;;2613533;39;20591;-78
2022/03/12 05:55:39;;;;;;;11.73;9.40;;;9.10;1.00;;;;;;2613629;54;20418;-80
2022/03/12 05:58:12;;;;;;;11.97;10.43;;;9.10;1.00;;;;;;2613423;54;20941;-78
2022/03/12 06:00:41;;;;;;;11.50;10.10;;;9.10;1.00;;;;;;2613998;39;21183;-79
2022/03/12 06:03:10;;;;;;;11.97;9.70;;;9.00;1.00;;;;;;2615021;54;20430;-80
2022/03/12 06:05:43;;;;;;;10.17;8.43;;;9.00;1.00;;;;;;2614016;54;20490;-79
2022/03/12 06:08:21;;;;;;;14.80;10.20;;;9.00;1.00;;;;;;2614298;39;20834;-80
2022/03/12 06:10:52;;;;;;;11.20;8.80;;;8.90;1.00;;;;;;2613060;39;20522;-80
2022/03/12 06:13:20;;;;;;;12.87;9.90;;;8.90;1.00;;;;;;2615143;39;21083;-79
2022/03/12 06:16:13;;;;;;;11.13;9.40;;;8.90;1.00;;;;;;2614231;47;20515;-79
2022/03/12 06:18:39;;;;;;;11.70;9.80;;;8.90;1.00;;;;;;2611354;54;20418;-79
2022/03/12 06:21:11;;;;;;;12.10;9.60;;;8.90;1.00;;;;;;2612012;47;20412;-81
2022/03/12 06:23:37;;;;;;;14.83;10.40;;;8.90;1.00;;;;;;2613230;54;20430;-81
2022/03/12 06:26:04;;;;;;;10.97;9.87;;;8.90;1.00;;;;;;2613962;47;20434;-82
2022/03/12 06:28:33;;;;;;;12.90;11.30;;;8.90;1.00;;;;;;2614842;31;20930;-80
2022/03/12 06:30:59;;;;;;;11.17;10.03;;;8.90;1.00;;;;;;2614042;47;20562;-82
2022/03/12 06:33:26;;;;;;;17.67;10.63;;;8.80;1.00;;;;;;2614414;39;20813;-80
2022/03/12 06:35:52;;;;;;;11.90;9.93;;;8.90;1.00;;;;;;2614416;39;20897;-80
2022/03/12 06:38:18;;;;;;;13.10;11.50;;;9.00;1.00;;;;;;2612469;51;20479;-80
2022/03/12 06:40:44;;;;;;;12.60;9.70;;;9.00;1.00;;;;;;2614436;39;20856;-80
2022/03/12 06:43:11;;;;;;;22.60;9.70;;;9.10;1.00;;;;;;2613484;54;20420;-81
2022/03/12 06:45:37;;;;;;;10.10;9.00;;;9.20;1.00;;;;;;2614109;54;20386;-81
2022/03/12 06:48:03;;;;;;;10.70;8.30;;;9.40;1.00;;;;;;2613830;47;20461;-81
2022/03/12 06:50:29;;;;;;;10.00;8.70;;;9.60;1.00;;;;;;2614974;47;20530;-80
2022/03/12 06:52:56;;;;;;;11.43;9.83;;;9.60;1.00;;;;;;2614429;47;20456;-80
2022/03/12 06:55:29;;;;;;;13.73;10.40;;;9.70;1.00;;;;;;2614928;39;20907;-81
2022/03/12 06:57:58;;;;;;;9.80;8.90;;;9.70;1.00;;;;;;2615077;47;20435;-81
2022/03/12 07:00:27;;;;;;;11.43;9.67;;;9.70;1.00;;;;;;2615493;47;20553;-81
2022/03/12 07:02:53;;;;;;;14.80;10.40;;;9.70;1.00;;;;;;2615159;39;20766;-81
2022/03/12 07:05:21;;;;;;;14.87;9.97;;;10.00;1.00;;;;;;2615059;47;20440;-82
2022/03/12 07:07:49;;;;;;;8.80;7.70;;;10.20;1.00;;;;;;2614477;54;20399;-82
2022/03/12 07:10:38;;;;;;;16.77;10.77;;;10.50;1.00;;;;;;2614798;47;20405;-82
2022/03/12 07:13:04;;;;;;;14.40;11.10;;;10.90;1.00;;;;;;2615069;51;20447;-81
2022/03/12 07:15:30;;;;;;;10.00;9.00;;;11.20;1.00;;;;;;2615391;46;20441;-81
2022/03/12 07:17:55;;;;;;;11.27;10.00;;;11.20;1.00;;;;;;2615365;47;20174;-82
2022/03/12 07:20:22;;;;;;;14.20;10.27;;;11.10;1.00;;;;;;2613314;47;20288;-81
2022/03/12 07:22:49;;;;;;;10.13;9.13;;;10.90;1.00;;;;;;2613522;46;20449;-81
2022/03/12 07:25:44;;;;;;;9.70;8.47;;;10.80;1.00;;;;;;2615545;54;20415;-79
2022/03/12 07:28:17;;;;;;;14.30;10.20;;;10.70;1.00;;;;;;2615956;54;20456;-81
2022/03/12 07:30:43;;;;;;;9.93;8.90;;;11.00;1.00;;;;;;2613301;39;21308;-81
2022/03/12 07:33:11;;;;;;;18.70;10.40;;;11.20;1.00;;;;;;2612364;54;20427;-81
2022/03/12 07:37:22;;;;;;;;;;;;;;;;;;;;;
2022/03/12 07:39:20;;;;;;;10.97;9.80;;;11.10;1.00;;;;;;2612117;54;21487;-81
2022/03/12 07:41:46;;;;;;;14.80;9.23;;;11.10;1.00;;;;;;2610966;54;20423;-80
2022/03/12 07:44:12;;;;;;;12.37;9.27;;;11.00;1.00;;;;;;2612270;54;21051;-81
2022/03/12 07:46:38;;;;;;;10.20;8.40;;;11.10;1.00;;;;;;2612362;47;20452;-80
2022/03/12 07:49:04;;;;;;;12.10;9.03;;;11.20;1.00;;;;;;2611559;54;20162;-80
2022/03/12 07:51:32;;;;;;;13.63;10.30;;;11.30;1.00;;;;;;2615167;39;21111;-81
2022/03/12 07:54:00;;;;;;;12.50;11.37;;;11.60;1.00;;;;;;2613989;54;20413;-81
2022/03/12 07:56:27;;;;;;;11.00;9.27;;;11.90;1.00;;;;;;2615643;39;20785;-80
2022/03/12 07:58:55;;;;;;;10.87;9.87;;;12.00;1.00;;;;;;2614150;54;21024;-81
2022/03/12 08:01:22;;;;;;;9.90;8.87;;;12.00;1.00;;;;;;2613975;54;20426;-79
2022/03/12 08:03:48;;;;;;;9.87;8.97;;;12.20;1.00;;;;;;2612358;50;20447;-80
2022/03/12 08:06:19;;;;;;;12.53;9.90;;;12.30;1.00;;;;;;2613795;54;21320;-80
2022/03/12 08:08:45;;;;;;;10.17;9.17;;;12.80;1.00;;;;;;2615673;39;20984;-81
2022/03/12 08:11:28;;;;;;;10.13;9.10;;;13.00;1.00;;;;;;2612447;54;20452;-81
2022/03/12 08:14:02;;;;;;;11.67;9.00;;;12.90;1.00;;;;;;2613809;47;20174;-82
2022/03/12 08:16:29;;;;;;;8.93;8.13;;;13.20;1.00;;;;;;2615030;46;20435;-81
2022/03/12 08:18:56;;;;;;;15.63;9.50;;;13.30;1.00;;;;;;2615434;46;20422;-82
2022/03/12 08:21:22;;;;;;;11.40;9.80;;;13.00;1.00;;;;;;2616231;47;20982;-81
2022/03/12 08:23:49;;;;;;;11.07;9.10;;;13.10;1.00;;;;;;2615558;47;20602;-81
2022/03/12 08:26:18;;;;;;;10.67;9.67;;;13.30;1.00;;;;;;2615355;39;20793;-83
2022/03/12 08:28:46;;;;;;;9.43;8.50;;;13.20;1.00;;;;;;2613667;46;20411;-81
2022/03/12 08:31:12;;;;;;;10.17;9.17;;;13.30;1.00;;;;;;2616364;47;20431;-83
2022/03/12 08:33:38;;;;;;;12.07;9.00;;;13.30;1.00;;;;;;2615808;54;20959;-82
2022/03/12 08:36:07;;;;;;;13.83;10.30;;;13.30;1.00;;;;;;2616531;47;20431;-82
2022/03/12 08:38:35;;;;;;;11.60;9.87;;;13.60;1.00;;;;;;2615241;54;20415;-81
2022/03/12 08:41:05;;;;;;;9.23;8.23;;;13.60;1.00;;;;;;2615843;47;20927;-82
2022/03/12 08:43:32;;;;;;;13.40;10.60;;;13.60;1.00;;;;;;2615659;54;20408;-82
2022/03/12 08:46:00;;;;;;;11.30;10.10;;;13.80;1.00;;;;;;2616555;51;20480;-80
2022/03/12 08:48:27;;;;;;;11.67;10.47;;;14.20;1.00;;;;;;2616722;46;20438;-81
2022/03/12 08:50:53;;;;;;;9.73;8.73;;;14.40;1.00;;;;;;2617388;54;20420;-80
2022/03/12 08:53:21;;;;;;;10.40;9.50;;;14.70;1.00;;;;;;2615441;54;20499;-82
2022/03/12 08:55:48;;;;;;;11.10;10.00;;;14.40;1.00;;;;;;2617103;31;20887;-82
2022/03/12 08:58:16;;;;;;;10.20;9.30;;;14.70;1.00;;;;;;2616641;54;20396;-82
2022/03/12 09:00:42;;;;;;;10.13;9.33;;;15.10;1.00;;;;;;2617442;54;20430;-83
2022/03/12 09:03:09;;;;;;;10.23;9.43;;;14.90;1.00;;;;;;2617244;54;20427;-82
2022/03/12 09:05:36;;;;;;;10.47;9.50;;;14.80;1.00;;;;;;2616410;54;20399;-80
2022/03/12 09:08:03;;;;;;;12.07;10.60;;;14.60;1.00;;;;;;2615519;47;20416;-81
2022/03/12 09:10:29;;;;;;;12.53;9.63;;;14.20;1.00;;;;;;2615107;54;20522;-82
2022/03/12 09:12:55;;;;;;;11.03;10.00;;;14.40;1.00;;;;;;2616005;39;20884;-82
2022/03/12 09:15:24;;;;;;;12.33;9.67;;;14.60;1.00;;;;;;2616889;54;20400;-81
2022/03/12 09:17:51;;;;;;;11.03;10.07;;;14.90;1.00;;;;;;2614530;54;20438;-82
2022/03/12 09:20:18;;;;;;;9.60;8.70;;;15.10;1.00;;;;;;2616659;39;20785;-81
2022/03/12 09:22:43;;;;;;;11.07;9.97;;;15.40;1.00;;;;;;2616220;47;20455;-83
2022/03/12 09:25:12;;;;;;;11.80;10.80;;;15.70;1.00;;;;;;2616674;54;20415;-84
2022/03/12 09:27:39;;;;;;;13.23;10.40;;;15.70;1.00;;;;;;2616552;54;21034;-82
2022/03/12 09:30:06;;;;;;;11.17;10.07;;;15.70;1.00;;;;;;2617669;47;20966;-81
2022/03/12 09:32:33;;;;;;;10.90;10.00;;;;;;;;;;2614625;54;20431;-83
2022/03/12 09:34:59;;;;;;;10.63;9.73;;;18.20;1.00;;;;;;2616997;47;20416;-84
2022/03/12 09:37:25;;;;;;;11.60;10.70;;;15.90;1.00;;;;;;2616347;54;20499;-83
2022/03/12 09:39:52;;;;;;;12.07;10.30;;;16.20;1.00;;;;;;2616209;54;20410;-82
2022/03/12 09:42:18;;;;;;;12.10;9.60;;;16.00;1.00;;;;;;2615755;54;20535;-82
2022/03/12 09:44:44;;;;;;;10.83;9.80;;;16.20;1.00;;;;;;2616611;54;20488;-83
2022/03/12 09:47:14;;;;;;;11.80;10.93;;;16.40;1.00;;;;;;2616071;47;20408;-83
2022/03/12 09:49:40;;;;;;;10.73;9.83;;;16.30;1.00;;;;;;2615821;54;20440;-80
2022/03/12 09:52:06;;;;;;;11.00;10.00;;;16.10;1.00;;;;;;2615427;39;20745;-81
2022/03/12 09:54:32;;;;;;;11.60;10.60;;;16.20;1.00;;;;;;2616769;39;20790;-82
2022/03/12 09:56:58;;;;;;;10.10;9.30;;;16.10;1.00;;;;;;2615638;47;20462;-83
2022/03/12 09:59:25;;;;;;;10.17;9.23;;;15.80;1.00;;;;;;2616909;39;20786;-83
2022/03/12 10:01:53;;;;;;;10.20;9.27;;;15.80;1.00;;;;;;2615236;47;20526;-83
2022/03/12 10:04:19;;;;;;;10.43;9.53;;;16.10;1.00;;;;;;2616014;47;20412;-82
2022/03/12 10:06:45;;;;;;;11.50;10.50;;;16.20;1.00;;;;;;2616436;47;20551;-82
2022/03/12 10:09:10;;;;;;;10.83;9.83;;;16.00;1.00;;;;;;2616774;46;20185;-83
2022/03/12 10:11:36;;;;;;;9.13;8.33;;;16.00;1.00;;;;;;2614556;47;20203;-82
2022/03/12 10:14:02;;;;;;;10.37;9.57;;;15.70;1.00;;;;;;2615491;54;20275;-83
2022/03/12 10:16:29;;;;;;;10.50;9.60;;;15.30;1.00;;;;;;2616806;47;20497;-81
2022/03/12 10:18:56;;;;;;;10.23;9.17;;;15.30;1.00;;;;;;2616766;39;20757;-84
2022/03/12 10:21:23;;;;;;;10.60;9.60;;;15.30;1.00;;;;;;2616486;47;20431;-82
2022/03/12 10:23:49;;;;;;;10.83;9.83;;;15.00;1.00;;;;;;2617247;54;20399;-83
2022/03/12 10:26:17;;;;;;;10.63;9.53;;;14.90;1.00;;;;;;2616888;39;20791;-80
2022/03/12 10:28:43;;;;;;;9.30;8.60;;;15.20;1.00;;;;;;2616174;51;20412;-81
2022/03/12 10:31:12;;;;;;;11.73;10.63;;;15.50;1.00;;;;;;2616204;47;20520;-84
2022/03/12 10:33:39;;;;;;;11.10;10.10;;;15.70;1.00;;;;;;2617118;47;20431;-83
2022/03/12 10:36:24;;;;;;;11.37;10.17;;;16.10;1.00;;;;;;2617118;47;20905;-80
2022/03/12 10:38:51;;;;;;;12.63;11.57;;;16.00;1.00;;;;;;2617350;54;20403;-83
2022/03/12 10:41:17;;;;;;;11.10;10.00;;;16.20;1.00;;;;;;2617553;54;20519;-83
2022/03/12 10:43:54;;;;;;;10.13;9.43;;;16.10;1.00;;;;;;2617350;39;20785;-83
2022/03/12 10:46:23;;;;;;;11.53;10.63;;;16.80;1.00;;;;;;2617966;47;20410;-84
2022/03/12 10:48:56;;;;;;;11.73;10.50;;;16.70;1.00;;;;;;2614955;54;20455;-81
2022/03/12 10:51:28;;;;;;;10.60;9.60;;;16.70;1.00;;;;;;2614975;47;20415;-80
2022/03/12 10:54:05;;;;;;;10.60;9.83;;;16.70;1.00;;;;;;2614610;54;20393;-82
2022/03/12 10:56:43;;;;;;;10.00;9.30;;;16.70;1.00;;;;;;2615167;47;20419;-81
2022/03/12 10:59:24;;;;;;;9.57;8.67;;;16.60;1.00;;;;;;2614382;47;20466;-81
2022/03/12 11:01:51;;;;;;;9.40;8.50;;;16.70;1.00;;;;;;2612307;47;20435;-80
2022/03/12 11:04:26;;;;;;;10.83;9.93;;;17.00;1.00;;;;;;2613558;54;20434;-79
2022/03/12 11:06:55;;;;;;;10.80;9.80;;;17.20;1.00;;;;;;2614348;47;20411;-80
2022/03/12 11:09:39;;;;;;;9.30;8.60;;;16.90;1.00;;;;;;2614811;39;20622;-84
2022/03/12 11:12:31;;;;;;;10.60;9.60;;;16.90;1.00;;;;;;2613940;54;20424;-82
2022/03/12 11:15:04;;;;;;;10.93;10.03;;;17.30;1.00;;;;;;2614021;39;20834;-83
2022/03/12 11:17:45;;;;;;;10.13;9.23;;;17.70;1.00;;;;;;2615944;54;20416;-83
2022/03/12 11:20:24;;;;;;;9.63;8.70;;;17.70;1.00;;;;;;2616446;47;20540;-82
2022/03/12 11:23:04;;;;;;;11.90;11.00;;;17.20;1.00;;;;;;2616505;54;20392;-81
2022/03/12 11:25:30;;;;;;;10.53;9.73;;;17.40;1.00;;;;;;2615532;54;20400;-82
2022/03/12 11:28:24;;;;;;;11.23;10.03;;;17.40;1.00;;;;;;2615680;46;20431;-84
2022/03/12 11:30:52;;;;;;;8.90;8.10;;;17.40;1.00;;;;;;2620702;47;20424;-82
2022/03/12 11:33:21;;;;;;;12.53;11.43;;;17.20;1.00;;;;;;2618827;47;20412;-82
2022/03/12 11:36:24;;;;;;;11.60;10.60;;;17.00;1.00;;;;;;2622584;54;20424;-80
2022/03/12 11:38:50;;;;;;;11.30;10.40;;;17.20;1.00;;;;;;2619741;54;20400;-80
2022/03/12 11:41:29;;;;;;;11.10;10.10;;;17.40;1.00;;;;;;2619820;54;20392;-83
2022/03/12 11:43:55;;;;;;;9.50;8.57;;;17.70;1.00;;;;;;2617087;47;20434;-80
2022/03/12 11:46:21;;;;;;;11.33;9.23;;;17.40;1.00;;;;;;2614676;47;21445;-81
2022/03/12 11:48:48;;;;;;;12.00;10.80;;;16.90;1.00;;;;;;2615125;54;20408;-81
2022/03/12 11:51:24;;;;;;;12.63;11.40;;;16.90;1.00;;;;;;2614121;46;20198;-82
2022/03/12 11:53:52;;;;;;;10.93;10.03;;;17.40;1.00;;;;;;2613702;47;20423;-81
2022/03/12 11:56:27;;;;;;;11.90;10.70;;;17.40;1.00;;;;;;2611873;47;21871;-82
2022/03/12 11:58:54;;;;;;;11.97;10.77;;;17.30;1.00;;;;;;2614561;47;21121;-83
2022/03/12 12:01:56;;;;;;;11.77;10.67;;;17.30;1.00;;;;;;2614108;54;20409;-83
2022/03/12 12:04:22;;;;;;;10.80;9.90;;;17.60;1.00;;;;;;2614762;47;20419;-82
2022/03/12 12:07:14;;;;;;;11.27;10.27;;;17.30;1.00;;;;;;2615152;47;20424;-84
2022/03/12 12:09:41;;;;;;;10.90;9.83;;;17.30;1.00;;;;;;2616232;46;20432;-81
2022/03/12 12:12:13;;;;;;;9.70;8.87;;;17.00;1.00;;;;;;2616158;54;20615;-84
2022/03/12 12:14:43;;;;;;;10.13;9.13;;;16.80;1.00;;;;;;2615491;54;20420;-84
2022/03/12 12:17:35;;;;;;;9.70;8.80;;;16.70;1.00;;;;;;2616711;39;20827;-84
2022/03/12 12:20:03;;;;;;;10.00;8.90;;;16.80;1.00;;;;;;2615865;54;20575;-82
2022/03/12 12:22:29;;;;;;;8.93;8.13;;;16.70;1.00;;;;;;2615687;54;20535;-83
2022/03/12 12:25:23;;;;;;;9.87;9.03;;;16.80;1.00;;;;;;2616592;39;21019;-83
2022/03/12 12:27:53;;;;;;;11.80;10.70;;;16.60;1.00;;;;;;2615055;47;20415;-81
2022/03/12 12:30:37;;;;;;;11.60;8.70;;;16.70;1.00;;;;;;2614956;54;20532;-81
2022/03/12 12:33:29;;;;;;;11.23;9.10;;;17.00;1.00;;;;;;2615646;54;20515;-81
2022/03/12 12:36:15;;;;;;;9.47;8.67;;;17.30;1.00;;;;;;2619414;46;20436;-80
2022/03/12 12:39:06;;;;;;;10.17;9.03;;;17.30;1.00;;;;;;2620432;54;20438;-80
2022/03/12 12:42:01;;;;;;;12.17;11.03;;;17.30;1.00;;;;;;2620450;54;20388;-80
2022/03/12 12:44:42;;;;;;;12.13;10.90;;;17.30;1.00;;;;;;2620749;54;20411;-79
2022/03/12 12:47:18;;;;;;;11.80;10.70;;;17.10;1.00;;;;;;2619920;46;20474;-80
2022/03/12 12:49:56;;;;;;;10.93;10.03;;;17.10;1.00;;;;;;2619560;54;20392;-79
2022/03/12 12:52:24;;;;;;;11.53;10.27;;;17.30;1.00;;;;;;2619693;47;20431;-80
2022/03/12 12:55:03;;;;;;;11.80;10.17;;;17.30;1.00;;;;;;2620225;47;21019;-80
2022/03/12 12:57:45;;;;;;;11.97;10.83;;;17.20;1.00;;;;;;2621968;47;20400;-80
2022/03/12 13:00:37;;;;;;;13.20;11.00;;;16.90;1.00;;;;;;2624503;46;20388;-79
2022/03/12 13:03:25;;;;;;;11.80;10.70;;;16.80;1.00;;;;;;2619322;47;20427;-80
2022/03/12 13:05:58;;;;;;;11.70;10.53;;;16.70;1.00;;;;;;2619122;47;20529;-80